LOC weather

Los Olivos Airstrip
Caborca, Sonora, Mexico

Public forecast

Using degrees Celsius for public forecast. Weather courtesy of forecast.io.

Closest aviation weather report (METAR) to Los Olivos Airstrip

Closest report is (Old) Puerto PeƱasco Airport, 55.4 nm (102.5 km) NNW. Retrieved UTC (0 seconds ago):

Closest aviation forecast (TAF) to Los Olivos Airstrip

Closest forecast is Nogales International Airport, 119.3 nm (220.9 km) ENE. Retrieved 2020/06/01 06:22 UTC (3 hours ago):

TAF KOLS 010520Z 0106/0206 08006KT P6SM BKN100 BKN150 FM010700 VRB03KT P6SM SCT110 FM012000 22012G20KT P6SM SCT090 BKN200